Time;durP1;ratioP1;P1;durP2;ratioP2;P2;SDS_P1;SDS_P2;PMS_P1;PMS_P2;Temp;Humidity;BMP_temperature;BMP_pressure;BME280_temperature;BME280_humidity;BME280_pressure;Samples;Min_cycle;Max_cycle;Signal;HPM_P1;HPM_P2
2022/06/19 00:01:26;;;;;;;20.58;2.92;;;;;;;19.51;100.00;100456.00;5080131;28;20060;-76
2022/06/19 00:03:54;;;;;;;18.48;4.38;;;;;;;19.41;100.00;100446.03;5072838;28;20036;-77
2022/06/19 00:06:20;;;;;;;18.10;3.00;;;;;;;19.30;100.00;100440.94;5065414;28;20127;-76
2022/06/19 00:08:48;;;;;;;24.80;3.60;;;;;;;19.19;100.00;100446.97;5074451;28;20112;-76
2022/06/19 00:11:16;;;;;;;21.70;4.45;;;;;;;19.10;100.00;100443.38;5074323;28;20100;-76
2022/06/19 00:13:42;;;;;;;25.40;3.75;;;;;;;19.20;100.00;100448.66;5056839;28;20036;-76
2022/06/19 00:16:08;;;;;;;22.33;3.67;;;;;;;19.19;100.00;100442.25;5074561;28;20028;-77
2022/06/19 00:18:35;;;;;;;23.67;3.28;;;;;;;19.23;100.00;100438.06;5081171;28;20036;-77
2022/06/19 00:21:01;;;;;;;24.35;4.00;;;;;;;19.05;100.00;100426.44;5070459;28;20047;-76
2022/06/19 00:23:27;;;;;;;23.00;3.65;;;;;;;18.96;100.00;100422.03;5077835;28;20464;-76
2022/06/19 00:25:52;;;;;;;25.52;3.30;;;;;;;18.81;100.00;100424.72;5081455;28;20099;-77
2022/06/19 00:28:18;;;;;;;26.23;3.33;;;;;;;18.71;100.00;100433.28;5075408;28;20672;-77
2022/06/19 00:30:43;;;;;;;20.05;2.95;;;;;;;18.68;100.00;100422.56;5077437;28;20117;-76
2022/06/19 00:33:09;;;;;;;23.25;4.07;;;;;;;18.67;100.00;100427.22;5063114;28;20028;-76
2022/06/19 00:35:34;;;;;;;31.05;4.78;;;;;;;18.64;100.00;100433.13;5082329;28;20114;-76
2022/06/19 00:38:00;;;;;;;16.00;3.38;;;;;;;18.53;100.00;100437.22;5083738;28;20032;-76
2022/06/19 00:40:29;;;;;;;29.58;3.50;;;;;;;18.43;100.00;100431.06;5081081;28;20057;-76
2022/06/19 00:42:54;;;;;;;23.38;4.25;;;;;;;18.53;100.00;100440.00;5076665;28;20036;-76
2022/06/19 00:45:42;;;;;;;19.25;3.25;;;;;;;18.45;100.00;100458.59;5054379;28;20044;-76
2022/06/19 00:48:15;;;;;;;20.40;3.47;;;;;;;18.41;100.00;100452.53;5094143;28;20379;-76
2022/06/19 00:50:43;;;;;;;32.53;4.45;;;;;;;18.28;100.00;100444.84;5079191;28;20040;-76
2022/06/19 00:53:13;;;;;;;32.05;3.75;;;;;;;18.34;100.00;100452.41;5080131;28;20111;-76
2022/06/19 00:55:42;;;;;;;35.20;4.68;;;;;;;18.31;100.00;100452.78;5079474;28;20092;-76
2022/06/19 00:58:36;;;;;;;22.15;3.42;;;;;;;18.26;100.00;100459.91;5075442;28;20586;-76
2022/06/19 01:01:07;;;;;;;30.80;4.63;;;;;;;18.07;100.00;100467.63;5072039;28;20059;-76
2022/06/19 01:03:46;;;;;;;20.55;4.18;;;;;;;17.92;100.00;100470.31;5078564;28;20025;-76
2022/06/19 01:06:13;;;;;;;31.63;3.67;;;;;;;17.99;100.00;100487.06;5078331;28;20028;-76
2022/06/19 01:08:39;;;;;;;25.77;3.58;;;;;;;17.85;100.00;100483.09;5093357;28;20068;-76
2022/06/19 01:11:05;;;;;;;24.25;3.60;;;;;;;17.88;100.00;100480.00;5068966;28;20028;-75
2022/06/19 01:13:36;;;;;;;22.65;4.30;;;;;;;17.87;100.00;100469.06;5078594;28;20025;-76
2022/06/19 01:16:04;;;;;;;24.08;3.38;;;;;;;17.67;100.00;100477.78;5074492;28;20109;-76
2022/06/19 01:18:33;;;;;;;26.80;3.30;;;;;;;17.64;100.00;100475.34;5078204;28;20032;-76
2022/06/19 01:21:12;;;;;;;37.10;3.63;;;;;;;17.72;100.00;100489.19;5083118;28;20024;-76
2022/06/19 01:23:51;;;;;;;36.92;4.47;;;;;;;17.56;100.00;100472.63;5092292;28;20032;-75
2022/06/19 01:26:20;;;;;;;31.40;3.75;;;;;;;17.24;100.00;100461.44;5075815;28;20036;-75
2022/06/19 01:28:46;;;;;;;30.90;3.83;;;;;;;17.30;100.00;100457.13;5083746;28;20091;-75
2022/06/19 01:31:18;;;;;;;36.92;3.63;;;;;;;17.45;100.00;100454.50;5084036;28;20042;-75
2022/06/19 01:33:47;;;;;;;35.72;4.13;;;;;;;17.25;100.00;100443.81;5078260;28;20506;-75
2022/06/19 01:36:16;;;;;;;32.20;3.53;;;;;;;17.17;100.00;100442.97;5087288;28;20055;-75
2022/06/19 01:38:46;;;;;;;32.30;3.60;;;;;;;17.05;100.00;100442.44;5067098;28;20055;-75
2022/06/19 01:41:37;;;;;;;30.20;4.70;;;;;;;16.83;100.00;100505.66;5090446;28;20036;-76
2022/06/19 01:44:04;;;;;;;15.23;3.13;;;;;;;16.82;100.00;100603.50;5080284;28;20123;-76
2022/06/19 01:46:30;;;;;;;27.73;3.47;;;;;;;16.76;100.00;100603.28;5096009;28;20036;-76
2022/06/19 01:48:56;;;;;;;49.60;5.05;;;;;;;16.52;100.00;100498.00;5077199;28;20091;-75
2022/06/19 01:51:22;;;;;;;29.50;3.00;;;;;;;16.56;100.00;100478.31;5076612;28;20039;-75
2022/06/19 01:53:58;;;;;;;28.10;3.42;;;;;;;16.66;100.00;100502.03;5078538;28;20036;-75
2022/06/19 01:56:24;;;;;;;34.55;3.50;;;;;;;16.54;100.00;100573.34;5088673;28;20044;-75
2022/06/19 01:58:52;;;;;;;30.40;3.00;;;;;;;16.52;100.00;100574.53;5092777;28;20035;-77
2022/06/19 02:01:17;;;;;;;31.95;3.33;;;;;;;16.59;100.00;100514.78;5075954;28;20102;-77
2022/06/19 02:03:56;;;;;;;31.58;2.83;;;;;;;16.49;100.00;100503.00;5076107;28;20044;-77
2022/06/19 02:06:26;;;;;;;25.85;3.33;;;;;;;16.46;100.00;100572.44;5076578;28;20048;-77
2022/06/19 02:08:52;;;;;;;40.13;4.50;;;;;;;16.35;100.00;100570.84;5078282;28;20081;-77
2022/06/19 02:11:18;;;;;;;23.30;3.05;;;;;;;16.48;100.00;100523.41;5045960;28;20070;-77
2022/06/19 02:13:45;;;;;;;31.00;3.33;;;;;;;16.40;100.00;100537.16;5073032;28;20115;-77
2022/06/19 02:16:15;;;;;;;27.38;4.25;;;;;;;16.50;100.00;100554.50;5083011;28;20033;-77
2022/06/19 02:18:46;;;;;;;26.25;3.28;;;;;;;16.54;100.00;100536.53;5077847;28;20039;-77
2022/06/19 02:21:18;;;;;;;28.75;3.63;;;;;;;16.54;100.00;100518.06;5078023;28;20033;-77
2022/06/19 02:23:45;;;;;;;28.95;2.72;;;;;;;16.40;100.00;100559.28;5078719;28;20020;-77
2022/06/19 02:26:11;;;;;;;35.47;3.80;;;;;;;16.42;100.00;100554.47;5073770;28;20060;-77
2022/06/19 02:28:41;;;;;;;28.95;3.33;;;;;;;16.40;100.00;100548.22;5075912;28;20090;-77
2022/06/19 02:31:07;;;;;;;24.50;2.75;;;;;;;16.35;100.00;100559.81;5079273;28;20115;-77
2022/06/19 02:33:47;;;;;;;24.25;3.10;;;;;;;16.31;100.00;100563.91;5081754;28;20536;-77
2022/06/19 02:36:31;;;;;;;26.08;2.80;;;;;;;16.13;100.00;100566.75;5080309;28;20066;-77
2022/06/19 02:39:00;;;;;;;31.02;2.50;;;;;;;16.13;100.00;100575.06;5075666;28;20037;-77
2022/06/19 02:41:30;;;;;;;30.05;3.08;;;;;;;16.12;100.00;100576.09;5082745;28;20035;-77
2022/06/19 02:43:56;;;;;;;25.77;2.55;;;;;;;16.03;100.00;100568.78;5075864;28;20032;-77
2022/06/19 02:46:21;;;;;;;20.00;2.63;;;;;;;15.99;100.00;100554.44;5084083;28;20062;-77
2022/06/19 02:48:47;;;;;;;21.02;2.58;;;;;;;15.98;99.43;100569.28;5073785;28;20039;-77
2022/06/19 02:51:12;;;;;;;32.45;2.47;;;;;;;15.86;98.11;100570.59;5076400;28;20395;-76
2022/06/19 02:53:38;;;;;;;23.75;3.75;;;;;;;15.86;96.55;100567.84;5075723;28;20060;-76
2022/06/19 02:56:03;;;;;;;20.10;2.67;;;;;;;15.80;94.40;100589.53;5050054;28;20035;-77
2022/06/19 02:58:29;;;;;;;28.00;2.38;;;;;;;15.78;92.68;100594.34;5065168;28;20528;-77
2022/06/19 03:00:54;;;;;;;31.35;3.38;;;;;;;15.89;92.84;100576.66;5066176;28;20032;-76
2022/06/19 03:03:26;;;;;;;18.35;2.10;;;;;;;15.99;91.33;100582.06;5074637;28;20035;-77
2022/06/19 03:05:52;;;;;;;21.63;2.85;;;;;;;15.80;91.49;100591.44;5080844;28;20116;-77
2022/06/19 03:08:17;;;;;;;13.70;2.88;;;;;;;15.78;89.97;100591.59;5077744;28;20031;-77
2022/06/19 03:10:43;;;;;;;18.98;2.33;;;;;;;15.82;89.31;100608.69;5076001;28;20043;-77
2022/06/19 03:13:08;;;;;;;23.45;2.45;;;;;;;15.85;88.78;100589.03;5068467;28;20040;-77
2022/06/19 03:15:34;;;;;;;21.35;2.05;;;;;;;15.82;85.94;100580.22;5077962;28;20161;-76
2022/06/19 03:17:59;;;;;;;17.70;2.03;;;;;;;15.66;86.25;100603.91;5080101;28;20025;-77
2022/06/19 03:20:26;;;;;;;24.67;2.20;;;;;;;15.74;85.19;100655.53;5077716;28;20130;-77
2022/06/19 03:22:52;;;;;;;23.92;2.03;;;;;;;15.62;84.81;100712.88;5062896;28;20041;-77
2022/06/19 03:25:18;;;;;;;23.85;2.45;;;;;;;15.59;83.16;100691.09;5081174;28;20038;-77
2022/06/19 03:27:44;;;;;;;30.38;2.35;;;;;;;15.61;80.23;100653.22;5074672;28;20412;-77
2022/06/19 03:30:12;;;;;;;22.83;1.95;;;;;;;15.56;78.95;100642.63;5083468;28;20037;-77
2022/06/19 03:32:38;;;;;;;17.52;1.85;;;;;;;15.50;78.43;100647.94;5054583;28;20029;-77
2022/06/19 03:35:04;;;;;;;12.65;1.50;;;;;;;15.58;76.55;100661.81;5078707;28;20024;-77
2022/06/19 03:37:29;;;;;;;21.27;2.05;;;;;;;15.55;77.22;100656.59;5077862;28;20137;-77
2022/06/19 03:39:55;;;;;;;17.92;1.58;;;;;;;15.59;77.23;100633.16;5058872;28;20503;-77
2022/06/19 03:42:20;;;;;;;16.00;2.00;;;;;;;15.60;77.44;100618.34;5072324;28;20040;-76
2022/06/19 03:44:46;;;;;;;22.10;2.08;;;;;;;15.49;77.71;100621.34;5054474;28;20484;-77
2022/06/19 03:47:20;;;;;;;11.43;1.80;;;;;;;15.43;78.12;100617.34;5080921;28;20032;-76
2022/06/19 03:49:46;;;;;;;22.70;2.55;;;;;;;15.50;78.75;100592.75;5073653;28;20047;-77
2022/06/19 03:52:11;;;;;;;19.42;1.58;;;;;;;15.47;79.17;100604.09;5092147;28;20024;-77
2022/06/19 03:54:37;;;;;;;20.85;1.85;;;;;;;15.45;79.40;100618.06;5086905;28;20392;-77
2022/06/19 03:57:03;;;;;;;17.55;1.60;;;;;;;15.47;79.92;100612.38;5098137;28;20044;-77
2022/06/19 03:59:29;;;;;;;18.70;1.88;;;;;;;15.40;80.87;100601.97;5082560;28;20029;-76
2022/06/19 04:01:54;;;;;;;18.25;1.80;;;;;;;15.24;81.09;100558.53;5077442;28;20063;-77
2022/06/19 04:04:20;;;;;;;15.43;2.15;;;;;;;15.41;82.31;100572.47;5083670;28;20107;-77
2022/06/19 04:06:45;;;;;;;13.13;1.52;;;;;;;15.51;82.30;100576.03;5079633;28;20107;-77
2022/06/19 04:09:15;;;;;;;10.88;1.67;;;;;;;15.41;82.56;100556.81;5085672;28;20036;-77
2022/06/19 04:11:41;;;;;;;22.70;1.50;;;;;;;15.40;83.27;100579.03;5101598;28;20038;-77
2022/06/19 04:14:11;;;;;;;16.92;1.48;;;;;;;15.45;84.30;100604.25;5088227;28;20110;-77
2022/06/19 04:16:37;;;;;;;9.55;1.67;;;;;;;15.42;84.34;100651.47;5082835;28;20049;-77
2022/06/19 04:19:04;;;;;;;13.30;1.60;;;;;;;15.49;85.18;100729.81;5080554;28;20059;-77
2022/06/19 04:21:38;;;;;;;15.93;2.28;;;;;;;15.62;84.99;100685.28;5082471;28;20032;-77
2022/06/19 04:24:04;;;;;;;10.13;1.10;;;;;;;15.76;84.96;100675.63;5081999;28;20032;-77
2022/06/19 04:26:33;;;;;;;19.20;2.42;;;;;;;15.57;85.88;100666.44;5087579;28;20037;-77
2022/06/19 04:28:59;;;;;;;20.10;1.50;;;;;;;15.66;86.36;100639.78;5078052;28;20032;-77
2022/06/19 04:31:25;;;;;;;8.35;1.33;;;;;;;15.57;85.33;100594.69;5067922;28;20032;-76
2022/06/19 04:33:51;;;;;;;15.93;2.20;;;;;;;15.56;86.22;100603.13;5081570;28;20484;-77
2022/06/19 04:36:19;;;;;;;12.85;1.45;;;;;;;15.70;85.90;100563.91;5085892;28;20483;-77
2022/06/19 04:38:47;;;;;;;12.05;1.45;;;;;;;15.71;86.07;100528.88;5082054;28;20111;-76
2022/06/19 04:41:18;;;;;;;13.63;1.75;;;;;;;15.90;84.21;100531.44;5080967;28;20040;-76
2022/06/19 04:43:43;;;;;;;9.73;1.20;;;;;;;15.70;82.83;100507.84;5080225;28;20028;-76
2022/06/19 04:46:09;;;;;;;10.70;1.48;;;;;;;15.82;83.30;100517.59;5085938;28;20518;-76
2022/06/19 04:48:36;;;;;;;13.73;1.30;;;;;;;15.88;82.67;100496.75;5087382;28;20036;-76
2022/06/19 04:51:02;;;;;;;13.98;1.38;;;;;;;15.79;80.98;100484.81;5079701;28;20137;-76
2022/06/19 04:53:28;;;;;;;7.38;0.90;;;;;;;15.77;79.38;100468.41;5076503;28;20041;-77
2022/06/19 04:55:55;;;;;;;16.13;1.40;;;;;;;15.80;79.92;100458.91;5078254;28;20564;-76
2022/06/19 04:58:22;;;;;;;12.98;1.02;;;;;;;16.04;78.09;100469.22;5079752;28;20085;-75
2022/06/19 05:00:49;;;;;;;9.57;1.40;;;;;;;16.12;78.43;100465.63;5082665;28;20051;-75
2022/06/19 05:03:16;;;;;;;14.02;1.30;;;;;;;16.11;77.86;100477.69;5085281;28;20064;-76
2022/06/19 05:05:42;;;;;;;11.35;1.60;;;;;;;16.14;76.56;100491.16;5077788;28;20035;-76
2022/06/19 05:08:08;;;;;;;6.50;1.02;;;;;;;16.12;76.51;100487.72;5079176;28;20383;-76
2022/06/19 05:10:33;;;;;;;23.35;1.33;;;;;;;16.10;77.68;100487.88;5080795;28;20035;-75
2022/06/19 05:12:59;;;;;;;10.07;1.00;;;;;;;16.24;78.92;100477.22;5080419;28;20050;-76
2022/06/19 05:15:24;;;;;;;14.68;1.20;;;;;;;16.13;77.17;100478.38;5077121;28;20086;-76
2022/06/19 05:17:51;;;;;;;15.23;1.35;;;;;;;16.22;77.49;100463.56;5052585;28;20044;-75
2022/06/19 05:20:17;;;;;;;9.00;1.02;;;;;;;16.03;76.85;100467.47;5078888;28;20497;-75
2022/06/19 05:22:42;;;;;;;23.05;1.45;;;;;;;16.18;78.33;100453.88;5074592;28;20040;-77
2022/06/19 05:25:08;;;;;;;8.38;1.30;;;;;;;16.44;77.00;100423.38;5043392;28;20032;-76
2022/06/19 05:27:40;;;;;;;11.65;1.48;;;;;;;16.38;76.91;100403.84;5083048;28;20040;-77
2022/06/19 05:30:08;;;;;;;15.73;1.10;;;;;;;16.63;77.77;100424.94;5083129;28;20028;-77
2022/06/19 05:32:33;;;;;;;10.57;1.55;;;;;;;16.69;76.85;100443.63;5082346;28;20036;-77
2022/06/19 05:34:59;;;;;;;14.27;1.17;;;;;;;17.05;73.41;100437.78;5091952;28;20498;-76
2022/06/19 05:37:25;;;;;;;10.50;1.13;;;;;;;17.00;76.31;100444.84;5093195;28;20039;-76
2022/06/19 05:39:51;;;;;;;12.20;1.17;;;;;;;17.23;75.34;100461.59;5062563;28;20060;-77
2022/06/19 05:42:17;;;;;;;11.77;1.63;;;;;;;17.19;74.56;100474.06;5091634;28;20032;-76
2022/06/19 05:44:42;;;;;;;10.90;1.17;;;;;;;17.50;73.80;100506.56;5051382;28;20043;-76
2022/06/19 05:47:08;;;;;;;16.38;2.10;;;;;;;18.05;71.24;100513.19;5058012;28;20395;-76
2022/06/19 05:49:34;;;;;;;8.05;1.17;;;;;;;17.87;70.68;100518.91;5076916;28;20115;-76
2022/06/19 05:52:00;;;;;;;18.75;1.40;;;;;;;17.86;70.68;100537.47;5063638;28;20163;-76
2022/06/19 05:54:28;;;;;;;8.82;1.15;;;;;;;17.77;73.09;100567.09;5075563;28;20048;-76
2022/06/19 05:56:55;;;;;;;12.57;1.42;;;;;;;17.66;71.60;100567.44;5059599;28;20032;-76
2022/06/19 05:59:21;;;;;;;11.57;1.30;;;;;;;17.42;72.19;100549.81;5073871;28;20043;-76
2022/06/19 06:01:46;;;;;;;8.27;1.23;;;;;;;17.58;71.79;100550.84;5078004;28;20392;-76
2022/06/19 06:04:12;;;;;;;11.45;1.65;;;;;;;17.83;71.43;100552.50;5078939;28;20105;-77
2022/06/19 06:06:40;;;;;;;11.75;1.40;;;;;;;18.43;70.70;100554.94;5077242;28;20032;-77
2022/06/19 06:09:06;;;;;;;13.85;1.65;;;;;;;18.55;70.13;100571.00;5091254;28;20491;-77
2022/06/19 06:11:31;;;;;;;14.07;1.25;;;;;;;18.87;68.48;100596.88;5059048;28;20028;-77
2022/06/19 06:13:57;;;;;;;17.85;1.42;;;;;;;18.74;68.10;100602.97;5074683;28;20066;-78
2022/06/19 06:16:23;;;;;;;9.10;1.27;;;;;;;19.25;65.83;100610.84;5043808;28;20132;-77
2022/06/19 06:18:50;;;;;;;8.23;1.17;;;;;;;19.08;65.55;100621.16;5063054;28;20388;-78
2022/06/19 06:21:19;;;;;;;13.70;1.55;;;;;;;18.82;66.63;100646.44;5062729;28;20082;-78
2022/06/19 06:23:45;;;;;;;17.83;1.00;;;;;;;18.28;70.79;100660.16;5058344;28;20054;-76
2022/06/19 06:26:18;;;;;;;8.82;1.23;;;;;;;18.32;69.57;100676.25;5070559;28;20046;-77
2022/06/19 06:28:46;;;;;;;11.27;1.35;;;;;;;18.19;71.68;100715.59;5075461;28;20108;-75
2022/06/19 06:31:11;;;;;;;9.25;1.63;;;;;;;18.19;70.41;100718.38;5090010;28;20450;-77
2022/06/19 06:33:37;;;;;;;14.10;1.50;;;;;;;18.50;67.62;100717.63;5048687;28;20059;-76
2022/06/19 06:36:04;;;;;;;10.13;1.30;;;;;;;19.07;67.08;100727.69;5057110;28;20040;-77
2022/06/19 06:38:29;;;;;;;13.82;1.65;;;;;;;19.17;64.71;100749.69;5074428;28;20036;-77
2022/06/19 06:40:55;;;;;;;14.68;1.23;;;;;;;18.62;67.22;100806.00;5077903;28;20507;-77
2022/06/19 06:43:21;;;;;;;9.60;1.20;;;;;;;18.58;68.06;100832.34;5072968;28;20384;-76
2022/06/19 06:45:48;;;;;;;8.93;1.20;;;;;;;18.29;70.12;100853.16;5086583;28;20180;-76
2022/06/19 06:48:14;;;;;;;7.68;1.40;;;;;;;17.76;72.87;100906.00;5088982;28;20373;-77
2022/06/19 06:50:41;;;;;;;8.48;1.38;;;;;;;17.65;73.33;100875.84;5087271;28;20036;-77
2022/06/19 06:53:07;;;;;;;9.32;1.20;;;;;;;17.61;75.65;100874.41;5091977;28;20537;-76
2022/06/19 06:55:40;;;;;;;9.20;0.90;;;;;;;17.47;75.26;100878.69;5081515;28;20032;-77
2022/06/19 06:58:06;;;;;;;15.68;1.30;;;;;;;17.29;77.26;100884.31;5083669;28;20507;-75
2022/06/19 07:00:32;;;;;;;14.13;2.05;;;;;;;17.45;77.32;100873.31;5087497;28;20081;-75
2022/06/19 07:02:59;;;;;;;14.85;1.52;;;;;;;17.47;77.93;100888.91;5061358;28;20048;-75
2022/06/19 07:05:29;;;;;;;12.70;1.60;;;;;;;17.51;79.41;100902.25;5078454;28;20029;-75
2022/06/19 07:07:54;;;;;;;12.20;1.27;;;;;;;17.35;79.43;100871.72;5076323;28;20036;-75
2022/06/19 07:10:20;;;;;;;11.13;1.23;;;;;;;17.36;81.79;100870.69;5044496;28;20035;-75
2022/06/19 07:12:48;;;;;;;14.20;1.27;;;;;;;17.48;85.00;100852.75;5086942;28;20040;-75
2022/06/19 07:15:13;;;;;;;21.60;1.50;;;;;;;17.34;86.06;100872.75;5077281;28;20513;-76
2022/06/19 07:17:39;;;;;;;11.00;1.42;;;;;;;17.29;86.83;100886.22;5080834;28;20032;-74
2022/06/19 07:20:05;;;;;;;11.07;1.40;;;;;;;17.13;89.75;100884.22;5062966;28;20119;-75
2022/06/19 07:22:31;;;;;;;11.00;1.30;;;;;;;17.08;94.10;100906.84;5072734;28;20041;-74
2022/06/19 07:24:57;;;;;;;14.35;1.90;;;;;;;16.93;95.30;100905.72;5071769;28;20025;-75
2022/06/19 07:27:23;;;;;;;10.43;1.60;;;;;;;16.68;98.90;100880.63;5089262;28;20036;-77
2022/06/19 07:29:48;;;;;;;11.60;1.23;;;;;;;16.51;100.00;100904.47;5073336;28;20141;-77
2022/06/19 07:32:14;;;;;;;16.45;2.05;;;;;;;16.69;100.00;100899.81;5055167;28;20033;-76
2022/06/19 07:34:41;;;;;;;13.45;1.63;;;;;;;16.49;100.00;100893.56;5071929;28;20036;-77
2022/06/19 07:37:07;;;;;;;15.00;1.70;;;;;;;16.41;100.00;100887.97;5071908;28;20480;-77
2022/06/19 07:39:36;;;;;;;13.85;1.60;;;;;;;16.25;100.00;100869.38;5071883;28;20076;-77
2022/06/19 07:42:04;;;;;;;10.13;1.50;;;;;;;16.37;100.00;100842.34;5055686;28;20067;-77
2022/06/19 07:44:29;;;;;;;11.38;1.10;;;;;;;16.44;100.00;100826.84;5106205;28;20044;-77
2022/06/19 07:52:23;;;;;;;16.88;1.70;;;;;;;16.88;100.00;100806.63;5072372;28;20040;-77
2022/06/19 07:54:48;;;;;;;13.93;1.75;;;;;;;17.18;100.00;100801.59;5055549;28;20424;-77
2022/06/19 07:57:14;;;;;;;11.23;1.80;;;;;;;17.30;100.00;100824.28;5074378;28;20499;-77
2022/06/19 07:59:39;;;;;;;22.60;2.08;;;;;;;16.95;100.00;100864.94;5091977;28;20082;-77
2022/06/19 08:02:06;;;;;;;25.88;2.58;;;;;;;16.94;100.00;100879.78;5075870;28;20037;-77
2022/06/19 08:04:32;;;;;;;8.82;2.03;;;;;;;16.86;100.00;100834.44;5074047;28;20040;-77
2022/06/19 08:06:57;;;;;;;16.83;1.95;;;;;;;16.65;100.00;100836.69;5075672;28;20036;-77
2022/06/19 08:09:23;;;;;;;12.55;1.35;;;;;;;16.43;100.00;100821.47;5078207;28;20032;-77
2022/06/19 08:11:48;;;;;;;12.50;1.58;;;;;;;16.48;100.00;100833.81;5095306;28;20036;-77
2022/06/19 08:14:14;;;;;;;13.30;1.83;;;;;;;16.35;100.00;100836.97;5077131;28;20036;-77
2022/06/19 08:16:39;;;;;;;14.82;1.60;;;;;;;16.30;100.00;100831.06;5094185;28;20493;-77
2022/06/19 08:19:05;;;;;;;17.80;1.70;;;;;;;16.34;100.00;100842.66;5094706;28;20107;-77
2022/06/19 08:21:31;;;;;;;15.32;1.88;;;;;;;16.17;100.00;100853.56;5043935;28;20033;-77
2022/06/19 08:23:56;;;;;;;14.07;1.73;;;;;;;16.16;100.00;100849.06;5061036;28;20032;-77
2022/06/19 08:26:22;;;;;;;16.45;1.48;;;;;;;16.22;100.00;100824.63;5077125;28;20399;-77
2022/06/19 08:31:25;;;;;;;11.45;1.42;;;;;;;16.01;100.00;100750.38;5094101;28;20041;-77
2022/06/19 08:33:50;;;;;;;18.60;1.60;;;;;;;15.40;100.00;100742.69;5096078;28;20063;-76
2022/06/19 08:36:16;;;;;;;15.32;1.48;;;;;;;15.25;100.00;100731.31;5098365;28;20112;-76
2022/06/19 08:38:49;;;;;;;13.10;2.05;;;;;;;14.89;100.00;100709.16;5099161;28;20589;-77
2022/06/19 08:41:35;;;;;;;17.55;1.80;;;;;;;14.88;100.00;100721.22;5099861;28;20075;-77
2022/06/19 08:44:41;;;;;;;22.70;2.25;;;;;;;14.96;100.00;100748.03;5101398;28;20498;-77
2022/06/19 08:47:35;;;;;;;28.92;2.03;;;;;;;14.83;100.00;100784.19;5083307;28;20073;-77
2022/06/19 08:50:31;;;;;;;20.10;1.90;;;;;;;15.08;100.00;100773.50;5100948;28;20039;-76
2022/06/19 08:53:22;;;;;;;24.70;2.60;;;;;;;14.92;100.00;100745.72;5099872;28;20027;-76
2022/06/19 08:56:07;;;;;;;15.75;2.58;;;;;;;14.81;100.00;100736.63;5101551;28;20430;-77
2022/06/19 08:58:58;;;;;;;18.52;2.55;;;;;;;14.79;100.00;100672.53;5100032;28;20024;-76
2022/06/19 09:01:43;;;;;;;20.63;3.50;;;;;;;14.70;100.00;100685.31;5102632;28;20030;-77
2022/06/19 09:07:30;;;;;;;24.38;4.32;;;;;;;14.84;100.00;100705.16;5100850;28;20391;-76
2022/06/19 09:10:26;;;;;;;22.73;4.00;;;;;;;14.96;100.00;100744.41;5101447;28;20039;-77
2022/06/19 09:13:13;;;;;;;36.28;4.82;;;;;;;14.93;100.00;100791.56;5101030;28;20150;-77
2022/06/19 09:16:03;;;;;;;28.05;4.70;;;;;;;15.07;100.00;100849.84;5100697;28;20028;-77
2022/06/19 09:18:38;;;;;;;55.05;5.70;;;;;;;15.70;100.00;100884.09;5100835;28;20044;-77
2022/06/19 09:21:11;;;;;;;41.30;5.65;;;;;;;15.75;100.00;100881.75;5084119;28;20031;-77
2022/06/19 09:24:12;;;;;;;42.22;5.05;;;;;;;15.79;100.00;100861.13;5085674;28;20126;-77
2022/06/19 09:26:41;;;;;;;30.10;4.07;;;;;;;16.20;100.00;100859.81;5079962;28;20039;-77
2022/06/19 09:29:16;;;;;;;46.70;5.03;;;;;;;16.60;100.00;100851.00;5085999;28;20028;-77
2022/06/19 09:31:53;;;;;;;42.10;6.13;;;;;;;17.39;100.00;100843.53;5103849;28;20032;-77
2022/06/19 09:34:32;;;;;;;42.53;5.10;;;;;;;17.83;100.00;100812.88;5086245;28;20028;-78
2022/06/19 09:37:05;;;;;;;32.35;4.88;;;;;;;18.17;100.00;100770.34;5086227;28;20035;-77
2022/06/19 09:39:34;;;;;;;35.58;5.63;;;;;;;18.43;100.00;100741.56;5085229;28;20028;-77
2022/06/19 09:42:05;;;;;;;28.95;4.55;;;;;;;18.73;100.00;100744.63;5086781;28;20035;-77
2022/06/19 09:44:57;;;;;;;30.98;5.22;;;;;;;18.69;100.00;100751.53;5104460;28;20017;-77
2022/06/19 09:47:35;;;;;;;34.72;5.15;;;;;;;18.76;100.00;100757.25;5084700;28;20056;-78
2022/06/19 09:50:08;;;;;;;25.35;4.38;;;;;;;17.99;100.00;100736.41;5102424;28;20032;-77
2022/06/19 09:52:43;;;;;;;43.70;5.07;;;;;;;17.88;100.00;100739.53;5102308;28;20097;-77
2022/06/19 09:55:23;;;;;;;33.30;5.28;;;;;;;17.88;100.00;100757.00;5103306;28;20079;-77
2022/06/19 09:57:58;;;;;;;33.97;5.97;;;;;;;18.01;100.00;100748.19;5102083;28;20486;-77
2022/06/19 10:00:28;;;;;;;38.92;4.82;;;;;;;18.26;100.00;100729.63;5103119;28;20064;-77
2022/06/19 10:03:01;;;;;;;34.53;6.07;;;;;;;17.86;100.00;100716.63;5103682;28;20035;-76
2022/06/19 10:05:43;;;;;;;32.42;4.10;;;;;;;17.62;100.00;100704.50;5106246;28;20024;-77
2022/06/19 10:08:15;;;;;;;23.55;3.95;;;;;;;17.80;100.00;100712.63;5105626;28;20030;-77
2022/06/19 10:10:57;;;;;;;24.25;3.45;;;;;;;17.64;100.00;100716.25;5099798;28;20026;-76
2022/06/19 10:13:42;;;;;;;29.50;3.45;;;;;;;17.48;100.00;100722.66;5103285;28;20043;-77
2022/06/19 10:16:45;;;;;;;29.23;3.42;;;;;;;17.73;100.00;100720.78;5101127;28;20054;-77
2022/06/19 10:19:16;;;;;;;29.90;3.60;;;;;;;17.95;100.00;100690.69;5097871;28;20107;-75
2022/06/19 10:24:33;;;;;;;21.55;3.35;;;;;;;19.28;100.00;100695.66;5097175;28;20428;-76
2022/06/19 10:27:27;;;;;;;17.83;3.05;;;;;;;19.56;100.00;100689.56;5096772;28;20110;-77
2022/06/19 10:30:11;;;;;;;15.75;3.35;;;;;;;19.05;100.00;100703.94;5097514;28;20028;-76
2022/06/19 10:32:49;;;;;;;28.15;3.33;;;;;;;19.16;100.00;100736.00;5097698;28;20081;-76
2022/06/19 10:35:40;;;;;;;22.45;3.95;;;;;;;18.95;100.00;100753.25;5095581;28;20080;-77
2022/06/19 10:38:40;;;;;;;23.85;3.45;;;;;;;18.80;100.00;100753.94;5096612;28;20024;-77
2022/06/19 10:44:19;;;;;;;;;;;;;;;18.68;100.00;100753.47;5097457;28;20122;-76
2022/06/19 10:46:55;;;;;;;36.28;3.90;;;;;;;18.60;100.00;100738.75;5096381;28;19931;-76
2022/06/19 10:49:34;;;;;;;28.30;3.60;;;;;;;18.32;100.00;100730.84;5097023;28;20513;-77
2022/06/19 10:52:11;;;;;;;28.42;3.80;;;;;;;18.50;100.00;100714.00;5080001;28;20028;-77
2022/06/19 10:55:06;;;;;;;31.98;4.47;;;;;;;19.43;100.00;100715.16;5098588;28;20028;-77
2022/06/19 10:57:32;;;;;;;28.85;3.58;;;;;;;19.26;100.00;100731.06;5081593;28;20122;-77
2022/06/19 10:59:58;;;;;;;15.20;3.30;;;;;;;19.26;100.00;100737.47;5097335;28;20036;-77
2022/06/19 11:05:28;;;;;;;19.10;3.00;;;;;;;19.40;98.13;100741.41;5095209;28;20123;-76
2022/06/19 11:07:53;;;;;;;19.83;3.55;;;;;;;19.46;100.00;100756.47;5098418;28;20048;-77
2022/06/19 11:10:36;;;;;;;10.45;2.80;;;;;;;19.16;96.88;100760.97;5080842;28;20074;-76
2022/06/19 11:13:05;;;;;;;22.80;4.10;;;;;;;18.88;100.00;100759.50;5095845;28;20039;-76
2022/06/19 11:15:33;;;;;;;22.83;3.60;;;;;;;19.01;100.00;100756.16;5096990;28;20067;-76
2022/06/19 11:18:22;;;;;;;22.00;3.75;;;;;;;19.09;100.00;100775.56;5094535;28;20532;-76
2022/06/19 11:20:57;;;;;;;26.50;3.05;;;;;;;19.25;100.00;100780.19;5095045;28;20066;-76
2022/06/19 11:23:48;;;;;;;17.83;3.40;;;;;;;18.74;100.00;100777.72;5095962;28;20039;-77
2022/06/19 11:26:34;;;;;;;20.80;4.00;;;;;;;18.50;100.00;100780.56;5096189;28;20390;-77
2022/06/19 11:29:07;;;;;;;22.92;4.05;;;;;;;18.57;100.00;100795.44;5095913;28;20028;-77
2022/06/19 11:31:35;;;;;;;25.67;4.18;;;;;;;18.58;100.00;100807.38;5096732;28;20035;-76
2022/06/19 11:37:40;;;;;;;22.27;4.63;;;;;;;18.37;100.00;100834.59;5096137;28;20081;-77
2022/06/19 11:40:05;;;;;;;33.00;4.47;;;;;;;18.50;100.00;100834.09;5095614;28;20059;-77
2022/06/19 11:42:34;;;;;;;24.27;3.97;;;;;;;18.64;100.00;100818.63;5078502;28;20403;-76
2022/06/19 11:45:04;;;;;;;30.00;4.72;;;;;;;18.97;100.00;100814.97;5094872;28;20173;-77
2022/06/19 11:47:40;;;;;;;31.90;5.63;;;;;;;19.07;100.00;100816.50;5096434;28;20024;-77
2022/06/19 11:50:16;;;;;;;29.45;5.80;;;;;;;19.16;100.00;100822.88;5096603;28;20024;-77
2022/06/19 11:52:51;;;;;;;24.73;5.45;;;;;;;18.83;100.00;100820.22;5094884;28;20028;-77